createdAt,value
2023-04-08T00:05:53.688Z,361.07
2023-04-08T00:11:36.109Z,360.77
2023-04-08T00:19:52.006Z,360.48
2023-04-08T00:23:02.688Z,360.66
2023-04-08T00:29:00.290Z,360.53
2023-04-08T00:34:46.180Z,360.48
2023-04-08T00:40:31.236Z,360.59
2023-04-08T00:46:18.666Z,360.68
2023-04-08T00:52:00.916Z,360.53
2023-04-08T00:57:43.690Z,360.89
2023-04-08T01:02:57.607Z,361.24
2023-04-08T01:08:37.861Z,361.70
2023-04-08T01:14:25.894Z,361.07
2023-04-08T01:25:31.845Z,361.01
2023-04-08T01:31:23.594Z,361.07
2023-04-08T01:38:35.761Z,361.28
2023-04-08T01:42:34.959Z,361.50
2023-04-08T01:47:46.253Z,361.34
2023-04-08T01:52:53.628Z,360.93
2023-04-08T01:58:00.996Z,361.08
2023-04-08T02:03:08.527Z,361.44
2023-04-08T02:08:15.480Z,361.09
2023-04-08T02:13:22.887Z,361.23
2023-04-08T02:18:30.120Z,361.14
2023-04-08T02:23:37.474Z,361.07
2023-04-08T02:28:44.743Z,360.80
2023-04-08T02:33:51.986Z,360.36
2023-04-08T02:38:59.177Z,360.44
2023-04-08T02:44:06.374Z,360.31
2023-04-08T02:49:13.559Z,360.09
2023-04-08T02:54:21.011Z,360.05
2023-04-08T02:59:28.424Z,360.22
2023-04-08T03:04:53.620Z,360.34
2023-04-08T03:09:49.036Z,360.39
2023-04-08T03:14:56.996Z,359.81
2023-04-08T03:20:04.441Z,359.94
2023-04-08T03:25:47.586Z,359.49
2023-04-08T03:31:03.969Z,359.59
2023-04-08T03:36:45.405Z,359.03
2023-04-08T03:41:52.687Z,358.90
2023-04-08T03:47:13.064Z,358.49
2023-04-08T03:52:28.994Z,358.68
2023-04-08T03:57:36.644Z,358.16
2023-04-08T04:02:46.291Z,357.71
2023-04-08T04:07:53.605Z,357.64
2023-04-08T04:13:01.000Z,357.41
2023-04-08T04:18:08.677Z,357.30
2023-04-08T04:23:16.124Z,356.88
2023-04-08T04:28:35.010Z,357.08
2023-04-08T04:33:42.653Z,356.73
2023-04-08T04:38:50.622Z,356.23
2023-04-08T04:43:57.672Z,356.15
2023-04-08T04:49:05.455Z,356.45
2023-04-08T04:54:16.349Z,355.82
2023-04-08T04:59:22.629Z,356.28
2023-04-08T05:04:33.486Z,355.94
2023-04-08T05:09:38.469Z,355.95
2023-04-08T05:14:46.069Z,355.56
2023-04-08T05:19:53.821Z,355.20
2023-04-08T05:25:41.404Z,354.84
2023-04-08T05:30:48.737Z,354.68
2023-04-08T05:35:56.576Z,354.05
2023-04-08T05:41:03.785Z,353.46
2023-04-08T05:46:11.253Z,353.45
2023-04-08T05:51:18.688Z,353.03
2023-04-08T05:56:32.251Z,353.00
2023-04-08T06:01:39.901Z,352.49
2023-04-08T06:06:47.103Z,351.97
2023-04-08T06:11:54.495Z,351.02
2023-04-08T06:17:09.048Z,350.90
2023-04-08T06:22:16.348Z,350.50
2023-04-08T06:27:23.932Z,350.56
2023-04-08T06:32:31.299Z,350.43
2023-04-08T06:37:47.259Z,350.88
2023-04-08T06:42:54.658Z,350.87
2023-04-08T06:48:02.199Z,350.62
2023-04-08T06:53:09.492Z,349.92
2023-04-08T06:58:18.768Z,349.64
2023-04-08T07:03:26.261Z,349.65
2023-04-08T07:08:33.766Z,349.69
2023-04-08T07:13:41.320Z,349.35
2023-04-08T07:18:49.291Z,348.89
2023-04-08T07:23:56.676Z,348.49
2023-04-08T07:29:04.295Z,348.37
2023-04-08T07:34:11.907Z,348.39
2023-04-08T07:39:19.278Z,347.95
2023-04-08T07:44:26.628Z,348.35
2023-04-08T07:49:33.932Z,347.83
2023-04-08T07:54:41.219Z,346.79
2023-04-08T07:59:48.421Z,347.24
2023-04-08T08:04:55.678Z,347.45
2023-04-08T08:10:02.944Z,347.65
2023-04-08T08:15:10.129Z,347.39
2023-04-08T08:20:17.357Z,347.65
2023-04-08T08:25:26.112Z,347.31
2023-04-08T08:30:33.977Z,347.04
2023-04-08T08:35:39.220Z,346.92
2023-04-08T08:40:46.686Z,346.80
2023-04-08T08:45:53.954Z,346.38
2023-04-08T08:51:01.282Z,346.14
2023-04-08T08:56:17.803Z,345.77
2023-04-08T09:01:15.686Z,345.40
2023-04-08T09:06:22.894Z,345.81
2023-04-08T09:11:30.171Z,345.24
2023-04-08T09:16:37.341Z,345.29
2023-04-08T09:21:44.529Z,345.09
2023-04-08T09:26:51.867Z,345.12
2023-04-08T09:31:59.213Z,345.33
2023-04-08T09:37:06.210Z,345.43
2023-04-08T09:42:13.495Z,345.68
2023-04-08T09:47:20.733Z,346.02
2023-04-08T09:52:27.855Z,345.80
2023-04-08T09:57:35.048Z,345.92
2023-04-08T10:02:42.391Z,345.79
2023-04-08T10:07:49.452Z,345.76
2023-04-08T10:12:56.715Z,345.73
2023-04-08T10:18:03.931Z,345.70
2023-04-08T10:23:11.054Z,346.07
2023-04-08T10:28:18.371Z,346.46
2023-04-08T10:33:25.610Z,346.03
2023-04-08T10:38:32.848Z,346.64
2023-04-08T10:43:40.122Z,346.45
2023-04-08T10:48:47.328Z,346.42
2023-04-08T10:53:54.577Z,346.31
2023-04-08T10:59:01.780Z,346.63
2023-04-08T11:04:09.013Z,346.73
2023-04-08T11:09:16.137Z,346.86
2023-04-08T11:14:23.407Z,347.05
2023-04-08T11:19:30.662Z,347.02
2023-04-08T11:24:37.870Z,347.09
2023-04-08T11:29:45.133Z,347.32
2023-04-08T11:34:52.371Z,347.66
2023-04-08T11:39:59.522Z,347.59
2023-04-08T11:45:06.853Z,348.15
2023-04-08T11:50:14.050Z,348.09
2023-04-08T11:55:21.177Z,347.66
2023-04-08T12:00:28.403Z,347.45
2023-04-08T12:05:35.576Z,347.42
2023-04-08T12:10:42.765Z,347.76
2023-04-08T12:15:50.083Z,347.77
2023-04-08T12:20:57.492Z,348.14
2023-04-08T12:26:04.697Z,347.97
2023-04-08T12:31:11.918Z,348.00
2023-04-08T12:36:19.111Z,348.00
2023-04-08T12:41:26.279Z,347.84
2023-04-08T12:46:33.510Z,347.75
2023-04-08T12:51:40.627Z,347.50
2023-04-08T12:56:47.820Z,347.33
2023-04-08T13:01:55.041Z,347.55
2023-04-08T13:07:02.219Z,347.77
2023-04-08T13:12:09.372Z,347.90
2023-04-08T13:17:16.582Z,348.18
2023-04-08T13:22:23.731Z,348.42
2023-04-08T13:27:30.924Z,348.24
2023-04-08T13:32:38.304Z,347.97
2023-04-08T13:37:45.297Z,348.13
2023-04-08T13:42:52.497Z,347.99
2023-04-08T13:47:59.933Z,348.02
2023-04-08T13:53:06.932Z,348.13
2023-04-08T13:58:22.978Z,347.41
2023-04-08T14:03:21.457Z,347.37
2023-04-08T14:08:28.514Z,346.99
2023-04-08T14:13:35.695Z,347.06
2023-04-08T14:18:42.923Z,346.74
2023-04-08T14:23:50.196Z,346.26
2023-04-08T14:28:57.440Z,346.13
2023-04-08T14:34:04.630Z,345.80
2023-04-08T14:39:11.810Z,345.68
2023-04-08T14:44:19.000Z,345.81
2023-04-08T14:49:26.289Z,345.31
2023-04-08T14:54:33.677Z,345.02
2023-04-08T14:59:40.854Z,345.02
2023-04-08T15:04:48.055Z,344.36
2023-04-08T15:09:55.188Z,343.66
2023-04-08T15:15:02.401Z,343.60
2023-04-08T15:20:09.696Z,343.44
2023-04-08T15:25:16.868Z,342.94
2023-04-08T15:30:24.101Z,343.42
2023-04-08T15:35:31.450Z,343.72
2023-04-08T15:40:38.522Z,343.55
2023-04-08T15:45:45.719Z,343.39
2023-04-08T15:50:52.965Z,343.23
2023-04-08T15:56:00.100Z,343.58
2023-04-08T16:01:07.280Z,343.55
2023-04-08T16:06:14.576Z,343.48
2023-04-08T16:11:21.757Z,343.43
2023-04-08T16:16:29.345Z,343.62
2023-04-08T16:21:36.598Z,343.05
2023-04-08T16:26:43.799Z,343.27
2023-04-08T16:31:53.187Z,343.18
2023-04-08T16:36:58.218Z,343.49
2023-04-08T16:42:05.461Z,342.93
2023-04-08T16:47:12.639Z,342.06
2023-04-08T16:52:19.853Z,341.47
2023-04-08T16:57:27.016Z,341.12
2023-04-08T17:02:34.275Z,340.64
2023-04-08T17:07:41.414Z,340.09
2023-04-08T17:12:48.571Z,339.77
2023-04-08T17:17:55.814Z,340.37
2023-04-08T17:23:03.037Z,339.47
2023-04-08T17:28:10.244Z,338.90
2023-04-08T17:33:17.515Z,338.88
2023-04-08T17:38:24.728Z,338.53
2023-04-08T17:43:31.974Z,338.23
2023-04-08T17:48:39.180Z,337.89
2023-04-08T17:53:46.493Z,337.70
2023-04-08T17:58:53.767Z,337.14
2023-04-08T18:04:01.073Z,337.16
2023-04-08T18:09:08.361Z,335.78
2023-04-08T18:14:15.592Z,335.60
2023-04-08T18:19:22.821Z,335.02
2023-04-08T18:24:30.079Z,334.01
2023-04-08T18:29:37.241Z,333.83
2023-04-08T18:34:44.494Z,333.08
2023-04-08T18:39:51.804Z,332.97
2023-04-08T18:44:59.012Z,332.72
2023-04-08T18:50:06.204Z,332.28
2023-04-08T18:55:13.489Z,332.17
2023-04-08T19:00:20.674Z,331.52
2023-04-08T19:05:27.933Z,331.32
2023-04-08T19:10:35.153Z,331.10
2023-04-08T19:15:42.360Z,330.52
2023-04-08T19:20:49.921Z,329.82
2023-04-08T19:25:57.230Z,329.49
2023-04-08T19:31:04.390Z,329.06
2023-04-08T19:36:11.649Z,328.84
2023-04-08T19:41:18.821Z,328.27
2023-04-08T19:46:26.066Z,328.16
2023-04-08T19:51:33.329Z,327.41
2023-04-08T19:56:40.640Z,327.35
2023-04-08T20:01:47.867Z,327.55
2023-04-08T20:06:55.089Z,327.67
2023-04-08T20:12:02.292Z,327.58
2023-04-08T20:17:09.518Z,327.48
2023-04-08T20:22:16.738Z,327.61
2023-04-08T20:27:23.952Z,327.51
2023-04-08T20:32:31.167Z,327.01
2023-04-08T20:37:38.319Z,327.03
2023-04-08T20:42:45.567Z,326.52
2023-04-08T20:47:52.789Z,326.44
2023-04-08T20:52:59.970Z,327.01
2023-04-08T20:58:07.265Z,326.92
2023-04-08T21:03:14.662Z,327.28
2023-04-08T21:08:21.798Z,327.47
2023-04-08T21:13:29.014Z,328.35
2023-04-08T21:18:36.179Z,328.96
2023-04-08T21:23:43.351Z,329.05
2023-04-08T21:28:50.841Z,328.92
2023-04-08T21:33:57.718Z,329.11
2023-04-08T21:39:04.904Z,329.17
2023-04-08T21:44:12.137Z,329.44
2023-04-08T21:49:19.395Z,329.29
2023-04-08T21:54:26.705Z,329.30
2023-04-08T21:59:33.974Z,329.38
2023-04-08T22:04:41.130Z,329.34
2023-04-08T22:09:48.342Z,329.91
2023-04-08T22:14:55.568Z,330.51
2023-04-08T22:20:02.719Z,330.26
2023-04-08T22:25:09.883Z,330.51
2023-04-08T22:30:17.157Z,331.24
2023-04-08T22:35:24.368Z,331.06
2023-04-08T22:40:31.651Z,330.65
2023-04-08T22:45:38.831Z,330.73
2023-04-08T22:50:46.011Z,331.11
2023-04-08T22:55:53.301Z,331.33
2023-04-08T23:01:00.510Z,331.09
2023-04-08T23:06:07.659Z,331.66
2023-04-08T23:11:14.852Z,331.37
2023-04-08T23:16:22.158Z,331.33
2023-04-08T23:21:29.210Z,330.89
2023-04-08T23:26:36.400Z,330.98
2023-04-08T23:31:43.691Z,330.73
2023-04-08T23:36:50.873Z,330.25
2023-04-08T23:41:58.144Z,330.51
2023-04-08T23:47:05.360Z,330.72
2023-04-08T23:52:12.543Z,331.30
2023-04-08T23:57:19.709Z,331.28
